Time;durP1;ratioP1;P1;durP2;ratioP2;P2;SDS_P1;SDS_P2;PMS_P1;PMS_P2;Temp;Humidity;BMP_temperature;BMP_pressure;BME280_temperature;BME280_humidity;BME280_pressure;Samples;Min_cycle;Max_cycle;Signal;HPM_P1;HPM_P2
2023/08/29 00:00:48;;;;;;;8.53;7.67;;;11.70;99.90;;;;;;6123807;23;20546;-86
2023/08/29 00:03:14;;;;;;;11.77;8.38;;;12.40;99.90;;;;;;6122196;23;20468;-86
2023/08/29 00:05:39;;;;;;;16.63;10.27;;;11.40;99.90;;;;;;6123033;23;20406;-86
2023/08/29 00:08:05;;;;;;;11.03;9.67;;;11.40;99.90;;;;;;6123388;23;20443;-86
2023/08/29 00:10:31;;;;;;;7.43;5.78;;;11.70;99.90;;;;;;6121633;23;20359;-86
2023/08/29 00:12:57;;;;;;;7.53;5.03;;;11.80;99.90;;;;;;6150044;23;20812;-87
2023/08/29 00:15:23;;;;;;;9.02;4.68;;;11.80;99.90;;;;;;6121325;23;20720;-86
2023/08/29 00:17:48;;;;;;;7.83;5.37;;;11.00;99.90;;;;;;6123678;23;20442;-87
2023/08/29 00:20:14;;;;;;;28.60;6.00;;;11.40;99.90;;;;;;6121039;23;20927;-86
2023/08/29 00:22:40;;;;;;;13.85;4.90;;;11.20;99.90;;;;;;6123559;23;20473;-86
2023/08/29 00:25:07;;;;;;;6.60;5.07;;;11.30;99.90;;;;;;6122531;23;20484;-86
2023/08/29 00:27:32;;;;;;;6.30;4.90;;;11.10;99.90;;;;;;6122374;23;20398;-87
2023/08/29 00:29:58;;;;;;;7.80;5.50;;;11.10;99.90;;;;;;6099284;23;20978;-86
2023/08/29 00:32:24;;;;;;;11.40;5.80;;;11.90;99.90;;;;;;6121572;23;20426;-86
2023/08/29 00:34:49;;;;;;;7.85;5.05;;;11.00;99.90;;;;;;6123483;23;20829;-87
2023/08/29 00:37:15;;;;;;;8.48;5.60;;;11.00;99.90;;;;;;6121355;23;20375;-87
2023/08/29 00:39:41;;;;;;;5.13;4.63;;;11.20;99.90;;;;;;6123334;23;20465;-86
2023/08/29 00:42:06;;;;;;;5.73;4.80;;;11.00;99.90;;;;;;6121131;23;20378;-85
2023/08/29 00:44:32;;;;;;;7.60;5.80;;;11.30;99.90;;;;;;6149336;23;20379;-86
2023/08/29 00:46:58;;;;;;;9.17;5.83;;;11.20;99.90;;;;;;6122717;23;20809;-86
2023/08/29 00:49:26;;;;;;;8.02;6.45;;;11.00;99.90;;;;;;6121887;23;20375;-86
2023/08/29 00:51:53;;;;;;;6.35;3.80;;;11.20;99.90;;;;;;6123061;23;20378;-86
2023/08/29 00:54:20;;;;;;;7.07;5.07;;;11.10;99.90;;;;;;6121091;23;20430;-89
2023/08/29 00:56:47;;;;;;;6.68;5.10;;;11.10;99.90;;;;;;6149368;23;20768;-86
2023/08/29 00:59:13;;;;;;;9.02;4.93;;;10.90;99.90;;;;;;6121036;23;20462;-85
2023/08/29 01:01:39;;;;;;;5.78;4.90;;;10.40;99.90;;;;;;6123157;23;20377;-86
2023/08/29 01:04:05;;;;;;;7.03;5.30;;;11.10;99.90;;;;;;6122174;23;20911;-85
2023/08/29 01:06:32;;;;;;;6.87;5.90;;;10.70;99.90;;;;;;6121763;23;20429;-86
2023/08/29 01:08:59;;;;;;;12.35;9.25;;;11.10;99.90;;;;;;6123336;23;21020;-86
2023/08/29 01:12:02;;;;;;;9.77;6.80;;;10.90;99.90;;;;;;6120763;23;20462;-86
2023/08/29 01:14:48;;;;;;;37.07;4.63;;;10.70;99.90;;;;;;6098664;23;20386;-86
2023/08/29 01:17:51;;;;;;;5.88;3.40;;;10.60;99.90;;;;;;6097446;23;20394;-86
2023/08/29 01:20:18;;;;;;;7.20;4.65;;;10.60;99.90;;;;;;6084313;23;20383;-86
2023/08/29 01:23:02;;;;;;;9.07;6.30;;;10.50;99.90;;;;;;6123002;23;20386;-87
2023/08/29 01:25:39;;;;;;;8.52;5.55;;;10.60;99.90;;;;;;6121114;23;20417;-86
2023/08/29 01:28:06;;;;;;;17.13;5.13;;;10.50;99.90;;;;;;6121964;23;20466;-87
2023/08/29 01:30:33;;;;;;;5.68;3.67;;;10.50;99.90;;;;;;6122939;23;20374;-86
2023/08/29 01:32:59;;;;;;;5.95;4.78;;;10.50;99.90;;;;;;6120620;23;20379;-87
2023/08/29 01:35:24;;;;;;;4.82;4.32;;;10.50;99.90;;;;;;6122768;23;20421;-86
2023/08/29 01:37:50;;;;;;;6.32;4.75;;;10.50;99.90;;;;;;6120196;23;20474;-87
2023/08/29 01:40:16;;;;;;;11.20;7.27;;;10.50;99.90;;;;;;6122813;23;20764;-87
2023/08/29 01:42:42;;;;;;;9.43;6.70;;;10.50;99.90;;;;;;6147130;23;20375;-86
2023/08/29 01:45:08;;;;;;;11.43;7.28;;;10.50;99.90;;;;;;6122431;23;20383;-87
2023/08/29 01:47:33;;;;;;;7.28;5.85;;;10.50;99.90;;;;;;6122116;23;20390;-86
2023/08/29 01:50:03;;;;;;;8.20;5.67;;;10.50;99.90;;;;;;6121056;23;20462;-87
2023/08/29 01:52:30;;;;;;;6.13;3.57;;;10.60;99.90;;;;;;6098405;23;20871;-86
2023/08/29 01:54:57;;;;;;;7.78;5.53;;;10.60;99.90;;;;;;6120198;23;20429;-87
2023/08/29 01:57:24;;;;;;;7.25;4.53;;;10.80;99.90;;;;;;6122812;23;20379;-86
2023/08/29 01:59:51;;;;;;;8.03;5.27;;;10.50;99.90;;;;;;6120399;23;20715;-86
2023/08/29 02:02:18;;;;;;;8.07;5.05;;;10.10;99.90;;;;;;6122460;23;20387;-87
2023/08/29 02:04:43;;;;;;;5.90;4.78;;;10.50;99.90;;;;;;6121674;23;20843;-86
2023/08/29 02:07:09;;;;;;;4.43;3.40;;;10.90;99.90;;;;;;6121178;23;20406;-86
2023/08/29 02:09:35;;;;;;;5.70;4.70;;;10.50;99.90;;;;;;6148709;23;20458;-86
2023/08/29 02:12:00;;;;;;;5.35;3.90;;;11.20;99.90;;;;;;6146810;23;20851;-87
2023/08/29 02:14:26;;;;;;;4.40;3.70;;;11.30;99.90;;;;;;6122601;23;20379;-87
2023/08/29 02:16:51;;;;;;;7.53;4.63;;;10.60;99.90;;;;;;6120330;23;20380;-87
2023/08/29 02:19:17;;;;;;;8.63;6.20;;;10.70;99.90;;;;;;6122247;23;20446;-87
2023/08/29 02:21:43;;;;;;;9.00;6.60;;;10.50;99.90;;;;;;6120674;23;20720;-87
2023/08/29 02:24:08;;;;;;;6.30;5.00;;;10.40;99.90;;;;;;6122145;23;20382;-87
2023/08/29 02:26:34;;;;;;;12.23;7.70;;;10.80;99.90;;;;;;6097802;23;20466;-86
2023/08/29 02:29:00;;;;;;;6.35;5.43;;;10.40;99.90;;;;;;6146808;23;20462;-87
2023/08/29 02:31:25;;;;;;;9.20;6.60;;;10.50;99.90;;;;;;6122473;23;20371;-87
2023/08/29 02:33:53;;;;;;;9.37;7.00;;;10.70;99.90;;;;;;6120151;23;20383;-87
2023/08/29 02:36:19;;;;;;;8.48;6.88;;;10.80;99.90;;;;;;6122191;23;20405;-87
2023/08/29 02:38:45;;;;;;;9.48;5.63;;;10.40;99.90;;;;;;6119959;23;20367;-86
2023/08/29 02:41:11;;;;;;;7.20;5.28;;;10.00;99.90;;;;;;6122095;23;20382;-87
2023/08/29 02:43:37;;;;;;;8.23;5.85;;;10.00;99.90;;;;;;6121263;23;20379;-87
2023/08/29 02:46:03;;;;;;;6.97;4.97;;;10.30;99.90;;;;;;6120995;23;20406;-86
2023/08/29 02:48:29;;;;;;;6.73;5.60;;;10.20;99.90;;;;;;6122512;23;20394;-87
2023/08/29 02:50:55;;;;;;;8.40;6.63;;;10.70;99.90;;;;;;6120002;23;20371;-87
2023/08/29 02:53:20;;;;;;;7.67;5.80;;;11.10;99.90;;;;;;6148423;23;20379;-87
2023/08/29 02:55:49;;;;;;;7.55;6.75;;;10.20;99.90;;;;;;6120095;23;20813;-87
2023/08/29 02:58:15;;;;;;;10.38;7.35;;;10.20;99.90;;;;;;6122107;23;20406;-87
2023/08/29 03:00:41;;;;;;;9.68;7.10;;;10.20;99.90;;;;;;6146859;23;20375;-86
2023/08/29 03:03:07;;;;;;;9.35;7.03;;;10.30;99.90;;;;;;6121484;23;20482;-86
2023/08/29 03:05:33;;;;;;;13.98;10.30;;;10.80;99.90;;;;;;6122248;23;20430;-87
2023/08/29 03:07:59;;;;;;;12.80;9.70;;;10.60;99.90;;;;;;6122488;23;20784;-87
2023/08/29 03:10:25;;;;;;;11.50;8.85;;;10.30;99.90;;;;;;6124068;23;20378;-87
2023/08/29 03:12:51;;;;;;;13.23;9.35;;;10.10;99.90;;;;;;6122064;23;20470;-87
2023/08/29 03:15:18;;;;;;;14.10;10.55;;;10.30;99.90;;;;;;6150433;23;20371;-87
2023/08/29 03:17:44;;;;;;;18.63;11.48;;;10.30;99.90;;;;;;6148210;23;20429;-86
2023/08/29 03:20:11;;;;;;;10.43;6.50;;;10.10;99.90;;;;;;6148738;23;20859;-87
2023/08/29 03:22:36;;;;;;;9.40;7.05;;;10.00;99.90;;;;;;6122883;23;20415;-87
2023/08/29 03:25:02;;;;;;;19.17;12.95;;;9.80;99.90;;;;;;6122618;23;20457;-87
2023/08/29 03:27:28;;;;;;;12.75;9.75;;;10.00;99.90;;;;;;6123929;23;20797;-87
2023/08/29 03:29:54;;;;;;;9.77;7.43;;;10.30;99.90;;;;;;6122321;23;20379;-87
2023/08/29 03:32:20;;;;;;;7.20;6.38;;;10.50;99.90;;;;;;6124016;23;20716;-87
2023/08/29 03:34:50;;;;;;;10.18;7.85;;;10.50;99.90;;;;;;6121315;23;20395;-86
2023/08/29 03:37:16;;;;;;;9.60;6.55;;;10.40;99.90;;;;;;6124043;23;20746;-87
2023/08/29 03:39:42;;;;;;;11.55;8.13;;;10.40;99.90;;;;;;6122038;23;20429;-87
2023/08/29 03:42:07;;;;;;;6.10;4.97;;;10.00;99.90;;;;;;6123227;23;20386;-87
2023/08/29 03:44:33;;;;;;;5.32;4.68;;;10.10;99.90;;;;;;6150121;23;20462;-87
2023/08/29 03:46:59;;;;;;;10.30;7.40;;;10.10;99.90;;;;;;6121832;23;20485;-87
2023/08/29 03:49:24;;;;;;;16.02;8.85;;;10.10;99.90;;;;;;6123740;23;20386;-87
2023/08/29 03:51:50;;;;;;;10.20;8.23;;;9.70;99.90;;;;;;6121664;23;20789;-88
2023/08/29 03:54:16;;;;;;;6.60;5.90;;;10.00;99.90;;;;;;6123872;23;20378;-87
2023/08/29 03:56:43;;;;;;;8.27;7.43;;;10.00;99.90;;;;;;6121896;23;20549;-87
2023/08/29 03:59:09;;;;;;;11.38;9.60;;;10.00;99.90;;;;;;6123646;23;20371;-87
2023/08/29 04:01:35;;;;;;;9.82;8.43;;;9.90;99.90;;;;;;6122809;23;20386;-87
2023/08/29 04:04:02;;;;;;;11.10;7.90;;;9.90;99.90;;;;;;6097904;23;20367;-87
2023/08/29 04:06:28;;;;;;;12.27;9.77;;;10.10;99.90;;;;;;6123799;23;20422;-87
2023/08/29 04:08:54;;;;;;;14.33;10.47;;;10.10;99.90;;;;;;6096911;23;20378;-87
2023/08/29 04:11:20;;;;;;;109.68;13.60;;;10.60;99.90;;;;;;6123983;23;20379;-87
2023/08/29 04:13:45;;;;;;;111.75;10.73;;;10.00;99.90;;;;;;6121689;23;20397;-87
2023/08/29 04:16:11;;;;;;;24.30;13.97;;;10.10;99.90;;;;;;6123700;23;20438;-87
2023/08/29 04:18:37;;;;;;;19.43;14.20;;;10.80;99.90;;;;;;6122238;23;20437;-87
2023/08/29 04:21:02;;;;;;;16.42;12.95;;;10.20;99.90;;;;;;6149026;23;20371;-87
2023/08/29 04:23:28;;;;;;;15.90;13.40;;;9.40;99.90;;;;;;6149776;23;20374;-87
2023/08/29 04:26:01;;;;;;;13.60;11.37;;;10.00;99.90;;;;;;6121495;23;20395;-87
2023/08/29 04:28:27;;;;;;;17.00;13.32;;;9.70;99.90;;;;;;6123413;23;20383;-87
2023/08/29 04:30:52;;;;;;;17.80;14.02;;;9.90;99.90;;;;;;6121416;23;20394;-87
2023/08/29 04:33:18;;;;;;;11.33;9.90;;;10.40;99.90;;;;;;6123567;23;20375;-87
2023/08/29 04:35:44;;;;;;;11.55;9.18;;;10.40;99.90;;;;;;6097158;23;20375;-87
2023/08/29 04:38:09;;;;;;;16.35;13.05;;;9.80;99.90;;;;;;6123282;23;20375;-88
2023/08/29 04:40:36;;;;;;;16.60;12.40;;;9.50;99.90;;;;;;6148952;23;20374;-87
2023/08/29 04:43:01;;;;;;;23.25;12.20;;;9.70;99.90;;;;;;6122098;23;20375;-88
2023/08/29 04:45:27;;;;;;;9.97;8.70;;;9.70;99.90;;;;;;6122165;23;20454;-87
2023/08/29 04:47:53;;;;;;;10.27;9.10;;;9.70;99.90;;;;;;6146861;23;20678;-87
2023/08/29 04:50:20;;;;;;;7.90;7.07;;;10.60;99.90;;;;;;6122815;23;20390;-87
2023/08/29 04:52:46;;;;;;;8.40;7.47;;;9.70;99.90;;;;;;6147151;23;20401;-88
2023/08/29 04:55:12;;;;;;;13.75;11.43;;;9.80;99.90;;;;;;6098824;23;20867;-87
2023/08/29 04:57:38;;;;;;;13.48;11.45;;;9.80;99.90;;;;;;6097432;23;20375;-88
2023/08/29 05:00:05;;;;;;;10.00;8.98;;;9.80;99.90;;;;;;6148221;23;20760;-89
2023/08/29 05:02:31;;;;;;;6.87;6.27;;;9.60;99.90;;;;;;6122847;23;20442;-89
2023/08/29 05:04:57;;;;;;;22.23;15.47;;;10.00;99.90;;;;;;6119714;23;20378;-88
2023/08/29 05:07:23;;;;;;;13.48;10.98;;;9.90;99.90;;;;;;6123190;23;20490;-88
2023/08/29 05:09:48;;;;;;;14.43;9.45;;;9.70;99.90;;;;;;6120395;23;20840;-87
2023/08/29 05:12:16;;;;;;;11.65;8.90;;;9.70;99.90;;;;;;6123367;23;20394;-88
2023/08/29 05:14:42;;;;;;;13.68;11.10;;;9.70;99.90;;;;;;6096703;23;20454;-88
2023/08/29 05:17:10;;;;;;;10.35;8.77;;;10.30;99.90;;;;;;6122984;23;20844;-88
2023/08/29 05:19:35;;;;;;;16.08;13.07;;;9.50;99.90;;;;;;6122375;23;20374;-88
2023/08/29 05:22:01;;;;;;;11.53;9.60;;;10.00;99.90;;;;;;6121434;23;20375;-89
2023/08/29 05:24:27;;;;;;;15.85;13.35;;;10.20;99.90;;;;;;6122994;23;20410;-88
2023/08/29 05:26:52;;;;;;;11.65;10.52;;;10.10;99.90;;;;;;6120535;23;20399;-88
2023/08/29 05:29:18;;;;;;;14.10;10.57;;;9.90;99.90;;;;;;6148923;23;20363;-89
2023/08/29 05:31:44;;;;;;;10.90;8.80;;;10.10;99.90;;;;;;6120637;23;20471;-88
2023/08/29 05:34:09;;;;;;;11.07;9.52;;;10.40;99.90;;;;;;6122894;23;20382;-90
2023/08/29 05:36:35;;;;;;;8.23;6.93;;;10.60;99.90;;;;;;6097128;23;20367;-89
2023/08/29 05:39:01;;;;;;;9.53;8.53;;;11.00;99.90;;;;;;6121841;23;20422;-89
2023/08/29 05:41:28;;;;;;;8.23;7.40;;;10.80;99.90;;;;;;6122853;23;20397;-89
2023/08/29 05:43:54;;;;;;;9.75;8.80;;;11.00;99.90;;;;;;6096679;23;20422;-90
2023/08/29 05:46:20;;;;;;;11.05;9.80;;;11.30;99.90;;;;;;6122898;23;20911;-89
2023/08/29 05:48:46;;;;;;;8.40;7.60;;;11.20;99.90;;;;;;6096242;23;20383;-89
2023/08/29 05:51:12;;;;;;;10.15;9.07;;;11.80;99.90;;;;;;6098632;23;20424;-89
2023/08/29 05:53:38;;;;;;;9.82;8.73;;;11.50;99.90;;;;;;6121092;23;20371;-88
2023/08/29 05:56:04;;;;;;;11.63;10.45;;;12.00;99.90;;;;;;6122654;23;20399;-89
2023/08/29 05:58:29;;;;;;;11.63;10.23;;;11.90;99.90;;;;;;6097512;23;20383;-89
2023/08/29 06:00:55;;;;;;;11.70;10.40;;;12.10;99.90;;;;;;6097120;23;20371;-89
2023/08/29 06:03:21;;;;;;;10.45;9.45;;;12.50;99.90;;;;;;6122872;23;20371;-89
2023/08/29 06:05:50;;;;;;;12.27;11.07;;;12.40;99.90;;;;;;6096510;23;20522;-90
2023/08/29 06:08:17;;;;;;;11.40;10.20;;;12.60;99.90;;;;;;6123475;23;20954;-89
2023/08/29 06:10:43;;;;;;;9.90;8.90;;;12.90;99.90;;;;;;6120552;23;20371;-90
2023/08/29 06:13:09;;;;;;;10.90;9.90;;;12.90;99.90;;;;;;6098545;23;20375;-90
2023/08/29 06:15:35;;;;;;;10.20;9.18;;;13.40;99.90;;;;;;6148017;23;20364;-90
2023/08/29 06:18:01;;;;;;;12.48;11.23;;;13.70;99.90;;;;;;6097681;23;20709;-90
2023/08/29 06:20:27;;;;;;;12.57;10.73;;;13.90;99.90;;;;;;6098657;23;20375;-88
2023/08/29 06:22:56;;;;;;;11.30;10.20;;;13.80;99.90;;;;;;6120860;23;20375;-89
2023/08/29 06:25:22;;;;;;;12.75;11.45;;;14.30;99.90;;;;;;6148715;23;20360;-89
2023/08/29 06:27:47;;;;;;;11.50;10.40;;;14.20;99.90;;;;;;6120746;23;20371;-90
2023/08/29 06:30:14;;;;;;;10.38;9.43;;;14.20;99.90;;;;;;6098437;23;20821;-88
2023/08/29 06:32:40;;;;;;;10.40;9.40;;;14.40;99.90;;;;;;6121225;23;20386;-89
2023/08/29 06:35:07;;;;;;;11.53;10.33;;;14.40;99.90;;;;;;6098065;23;20819;-89
2023/08/29 06:37:33;;;;;;;9.40;8.60;;;14.50;99.90;;;;;;6122505;23;20379;-89
2023/08/29 06:39:59;;;;;;;10.02;9.00;;;14.90;99.90;;;;;;6096321;23;20914;-90
2023/08/29 06:42:26;;;;;;;9.67;8.77;;;14.80;99.90;;;;;;6098865;23;20407;-90
2023/08/29 06:44:52;;;;;;;9.48;8.52;;;15.10;99.90;;;;;;6096259;23;20367;-91
2023/08/29 06:47:17;;;;;;;9.15;8.25;;;15.00;99.90;;;;;;6122525;23;20800;-90
2023/08/29 06:49:43;;;;;;;10.20;9.20;;;15.10;99.90;;;;;;6096402;23;20371;-90
2023/08/29 06:52:08;;;;;;;8.90;8.00;;;15.30;99.90;;;;;;6098598;23;20371;-90
2023/08/29 06:54:35;;;;;;;10.27;8.20;;;15.60;99.90;;;;;;6097513;23;20382;-91
2023/08/29 06:57:01;;;;;;;12.77;8.32;;;15.50;99.90;;;;;;6097345;23;20374;-90
2023/08/29 06:59:27;;;;;;;14.65;9.15;;;15.60;99.90;;;;;;6098548;23;20390;-91
2023/08/29 07:01:52;;;;;;;24.53;10.93;;;15.70;99.90;;;;;;6096611;23;20367;-89
2023/08/29 07:04:18;;;;;;;27.40;11.60;;;16.20;99.90;;;;;;6098566;23;20947;-89
2023/08/29 07:06:44;;;;;;;31.90;12.27;;;15.90;99.90;;;;;;6096172;23;20457;-89
2023/08/29 07:09:09;;;;;;;30.05;11.20;;;16.50;99.90;;;;;;6122318;23;20455;-90
2023/08/29 07:11:35;;;;;;;31.40;10.83;;;16.30;99.90;;;;;;6096348;23;20403;-89
2023/08/29 07:14:00;;;;;;;23.40;9.15;;;16.50;99.90;;;;;;6122229;23;20539;-90
2023/08/29 07:16:26;;;;;;;26.52;10.10;;;17.10;99.90;;;;;;6122097;23;20712;-90
2023/08/29 07:18:52;;;;;;;23.27;8.77;;;17.00;99.90;;;;;;6121205;23;20870;-90
2023/08/29 07:21:17;;;;;;;22.85;8.60;;;16.80;99.90;;;;;;6098299;23;20382;-90
2023/08/29 07:23:43;;;;;;;24.17;9.10;;;17.20;99.90;;;;;;6120518;23;20385;-91
2023/08/29 07:26:09;;;;;;;26.25;9.73;;;17.30;99.90;;;;;;6122792;23;20391;-91
2023/08/29 07:28:34;;;;;;;34.47;11.50;;;17.50;99.90;;;;;;6096030;23;20438;-90
2023/08/29 07:31:00;;;;;;;29.40;11.27;;;17.40;99.90;;;;;;6098323;23;20856;-90
2023/08/29 07:33:26;;;;;;;29.80;11.35;;;17.40;99.90;;;;;;6121324;23;20412;-91
2023/08/29 07:35:52;;;;;;;29.53;10.93;;;17.70;99.90;;;;;;6097063;23;20389;-90
2023/08/29 07:38:18;;;;;;;23.90;9.07;;;17.80;99.90;;;;;;6097997;23;20383;-91
2023/08/29 07:40:48;;;;;;;15.95;6.75;;;17.60;99.90;;;;;;6091274;23;20428;-91
2023/08/29 07:43:15;;;;;;;12.25;5.80;;;17.60;99.90;;;;;;6117903;23;20730;-89
2023/08/29 07:45:41;;;;;;;9.70;4.88;;;17.70;99.90;;;;;;6115390;23;20422;-90
2023/08/29 07:48:07;;;;;;;10.63;5.32;;;17.90;99.90;;;;;;6117717;23;20380;-89
2023/08/29 07:50:33;;;;;;;10.65;6.00;;;18.10;99.90;;;;;;6115507;23;20880;-91
2023/08/29 07:53:00;;;;;;;15.80;6.90;;;17.70;99.90;;;;;;6118607;23;20376;-91
2023/08/29 07:55:25;;;;;;;10.52;5.03;;;18.10;99.90;;;;;;6118644;23;20373;-90
2023/08/29 07:57:51;;;;;;;9.52;4.70;;;18.40;99.90;;;;;;6117337;23;20866;-90
2023/08/29 08:00:17;;;;;;;6.67;3.90;;;17.80;99.90;;;;;;6120510;23;20372;-91
2023/08/29 08:02:44;;;;;;;4.68;3.00;;;18.30;99.90;;;;;;6116889;23;20380;-90
2023/08/29 08:05:12;;;;;;;4.18;2.70;;;18.10;99.90;;;;;;6094752;23;20702;-90
2023/08/29 08:07:39;;;;;;;4.32;2.72;;;18.10;99.90;;;;;;6090611;23;20436;-90
2023/08/29 08:10:05;;;;;;;4.68;1.95;;;18.10;99.90;;;;;;6093406;23;20369;-90
2023/08/29 08:12:32;;;;;;;4.55;2.20;;;18.20;99.90;;;;;;6092252;23;20365;-90
2023/08/29 08:14:58;;;;;;;4.27;2.10;;;18.40;99.90;;;;;;6116266;23;20445;-89
2023/08/29 08:17:24;;;;;;;2.17;1.75;;;18.60;99.90;;;;;;6093553;23;20388;-90
2023/08/29 08:19:50;;;;;;;3.08;1.83;;;18.70;99.90;;;;;;6115183;23;20861;-91
2023/08/29 08:22:15;;;;;;;2.80;1.83;;;18.20;99.90;;;;;;6118186;23;20411;-90
2023/08/29 08:24:41;;;;;;;3.20;1.60;;;18.60;99.90;;;;;;6115545;23;20377;-90
2023/08/29 08:27:07;;;;;;;3.40;1.75;;;18.80;99.90;;;;;;6093164;23;20424;-90
2023/08/29 08:29:33;;;;;;;3.40;1.50;;;18.70;99.90;;;;;;6115068;23;20460;-89
2023/08/29 08:31:59;;;;;;;2.63;1.10;;;18.90;99.90;;;;;;6094630;23;20389;-91
2023/08/29 08:34:25;;;;;;;4.28;1.90;;;18.90;99.90;;;;;;6092619;23;20384;-90
2023/08/29 08:36:51;;;;;;;3.08;1.30;;;19.10;99.90;;;;;;6092043;23;20385;-91
2023/08/29 08:39:17;;;;;;;2.90;1.85;;;19.00;99.90;;;;;;6094200;23;20381;-91
2023/08/29 08:41:43;;;;;;;3.70;1.63;;;19.50;99.90;;;;;;6116377;23;20408;-90
2023/08/29 08:44:11;;;;;;;3.53;1.73;;;19.20;99.90;;;;;;6118695;23;21260;-90
2023/08/29 08:46:37;;;;;;;3.45;2.00;;;19.30;99.90;;;;;;6090535;23;20488;-90
2023/08/29 08:49:04;;;;;;;3.78;1.98;;;19.60;99.90;;;;;;6117933;23;20434;-91
2023/08/29 08:51:30;;;;;;;3.53;2.35;;;19.40;99.90;;;;;;6117600;23;20416;-91
2023/08/29 08:53:57;;;;;;;4.47;2.10;;;19.70;99.90;;;;;;6092891;23;20385;-90
2023/08/29 08:56:23;;;;;;;3.25;1.52;;;19.60;99.90;;;;;;6092605;23;20460;-90
2023/08/29 08:58:52;;;;;;;4.43;2.00;;;19.50;99.90;;;;;;6115938;23;20384;-91
2023/08/29 09:01:17;;;;;;;3.22;1.55;;;19.80;99.90;;;;;;6118221;23;20365;-91
2023/08/29 09:03:44;;;;;;;4.20;2.92;;;19.90;99.90;;;;;;6114220;23;20381;-90
2023/08/29 09:06:09;;;;;;;3.05;1.98;;;19.90;99.90;;;;;;6118081;23;20475;-90
2023/08/29 09:08:36;;;;;;;2.73;1.97;;;19.90;99.90;;;;;;6091719;23;20888;-90
2023/08/29 09:11:05;;;;;;;2.70;1.33;;;20.00;99.90;;;;;;6118195;23;20372;-91
2023/08/29 09:13:30;;;;;;;2.17;1.50;;;19.70;99.90;;;;;;6118025;23;20459;-90
2023/08/29 09:16:00;;;;;;;3.20;1.80;;;19.70;99.90;;;;;;6117021;23;20459;-91
2023/08/29 09:18:32;;;;;;;2.60;1.40;;;19.90;99.90;;;;;;6070056;23;20385;-91
2023/08/29 09:21:00;;;;;;;3.20;1.55;;;19.80;99.90;;;;;;6091601;23;20698;-90
2023/08/29 09:23:36;;;;;;;3.80;1.95;;;19.70;99.90;;;;;;6094115;23;20458;-90
2023/08/29 09:26:01;;;;;;;3.22;1.88;;;19.90;99.90;;;;;;6116305;23;20443;-90
2023/08/29 09:28:29;;;;;;;2.50;1.73;;;19.90;99.90;;;;;;6092904;23;20374;-90
2023/08/29 09:31:10;;;;;;;2.25;1.30;;;20.30;99.90;;;;;;6119916;23;20368;-90
2023/08/29 09:33:38;;;;;;;2.40;1.52;;;20.10;99.90;;;;;;6091764;23;20388;-91
2023/08/29 09:36:05;;;;;;;2.50;2.30;;;20.20;99.90;;;;;;6093967;23;20400;-90
2023/08/29 09:38:32;;;;;;;3.25;2.47;;;20.10;99.90;;;;;;6091815;23;20467;-91
2023/08/29 09:41:00;;;;;;;3.72;2.67;;;20.20;99.90;;;;;;6117339;23;20385;-91
2023/08/29 09:43:30;;;;;;;2.90;2.60;;;20.30;99.90;;;;;;6092713;23;20383;-91
2023/08/29 09:45:56;;;;;;;3.25;2.38;;;20.40;99.90;;;;;;6092655;23;20900;-91
2023/08/29 09:48:22;;;;;;;3.10;1.80;;;20.50;99.90;;;;;;6093642;23;20384;-91
2023/08/29 09:50:49;;;;;;;3.38;2.40;;;20.50;99.90;;;;;;6091817;23;20376;-91
2023/08/29 09:53:17;;;;;;;2.38;1.73;;;20.50;99.90;;;;;;6093459;23;20374;-91
2023/08/29 09:55:46;;;;;;;2.30;1.67;;;20.90;99.90;;;;;;6091553;23;20900;-91
2023/08/29 09:58:12;;;;;;;1.75;1.65;;;20.60;99.90;;;;;;6117983;23;20373;-92
2023/08/29 10:00:41;;;;;;;4.05;2.60;;;20.70;99.90;;;;;;6092089;23;20451;-91
2023/08/29 10:03:08;;;;;;;2.20;2.00;;;20.70;99.90;;;;;;6117233;23;20451;-91
2023/08/29 10:05:36;;;;;;;2.70;1.80;;;20.90;99.90;;;;;;6117834;23;20778;-90
2023/08/29 10:08:38;;;;;;;1.95;1.60;;;20.80;99.90;;;;;;6115751;23;20857;-91
2023/08/29 10:11:05;;;;;;;2.30;1.70;;;20.90;99.90;;;;;;6117818;23;20755;-91
2023/08/29 10:13:34;;;;;;;2.25;1.50;;;20.90;99.90;;;;;;6091708;23;20377;-91
2023/08/29 10:16:01;;;;;;;2.95;1.77;;;21.00;99.90;;;;;;6092888;23;20443;-91
2023/08/29 10:18:28;;;;;;;2.55;1.25;;;21.30;99.90;;;;;;6117635;23;20381;-90
2023/08/29 10:20:55;;;;;;;2.20;1.20;;;21.30;99.90;;;;;;6091903;23;20384;-91
2023/08/29 10:23:22;;;;;;;3.30;1.60;;;21.20;99.90;;;;;;6117734;23;20463;-91
2023/08/29 10:25:49;;;;;;;3.40;1.50;;;21.30;99.90;;;;;;6116150;23;20396;-91
2023/08/29 10:28:16;;;;;;;1.77;1.27;;;21.20;99.90;;;;;;6093774;23;20380;-91
2023/08/29 10:30:48;;;;;;;2.25;1.50;;;21.50;99.90;;;;;;6115624;23;20372;-92
2023/08/29 10:33:15;;;;;;;2.22;1.67;;;21.80;99.90;;;;;;6092718;23;20409;-90
2023/08/29 10:35:40;;;;;;;2.47;1.50;;;21.70;99.90;;;;;;6092814;23;20369;-91
2023/08/29 10:38:09;;;;;;;2.08;1.50;;;21.90;99.90;;;;;;6115798;23;20515;-91
2023/08/29 10:40:36;;;;;;;2.23;1.60;;;21.40;99.70;;;;;;6092502;23;20746;-92
2023/08/29 10:43:03;;;;;;;2.65;2.20;;;21.30;99.80;;;;;;6114949;23;20754;-90
2023/08/29 10:45:59;;;;;;;1.90;1.60;;;21.20;99.90;;;;;;6093136;23;20774;-92
2023/08/29 10:48:41;;;;;;;3.10;1.30;;;21.10;99.90;;;;;;6092346;23;20988;-91
2023/08/29 10:51:14;;;;;;;1.93;1.30;;;21.00;99.90;;;;;;6092085;23;20456;-91
2023/08/29 10:53:47;;;;;;;2.63;1.50;;;21.00;99.90;;;;;;6093270;23;20380;-91
2023/08/29 10:56:13;;;;;;;2.33;1.90;;;21.10;99.90;;;;;;6090996;23;20381;-93
2023/08/29 10:58:41;;;;;;;1.92;1.70;;;21.60;99.90;;;;;;6093095;23;20408;-92
2023/08/29 11:01:30;;;;;;;3.20;1.43;;;21.30;99.90;;;;;;6091494;23;20385;-92
2023/08/29 11:04:03;;;;;;;1.55;1.00;;;21.30;99.90;;;;;;6092271;23;20420;-91
2023/08/29 11:06:54;;;;;;;3.50;1.30;;;21.50;98.80;;;;;;6093370;23;20404;-91
2023/08/29 11:09:21;;;;;;;3.83;1.60;;;21.70;99.90;;;;;;6091046;23;20393;-92
2023/08/29 11:12:09;;;;;;;2.80;1.10;;;22.00;97.80;;;;;;6092994;23;20428;-93
2023/08/29 11:14:56;;;;;;;3.10;1.80;;;22.10;97.80;;;;;;6092597;23;20452;-92
2023/08/29 11:17:23;;;;;;;2.80;1.80;;;22.40;95.10;;;;;;6115829;23;20953;-92
2023/08/29 11:19:55;;;;;;;2.17;1.50;;;22.60;93.40;;;;;;6093804;23;20380;-91
2023/08/29 11:22:22;;;;;;;2.75;1.45;;;22.80;90.00;;;;;;6091384;23;20387;-92
2023/08/29 11:24:55;;;;;;;2.10;1.13;;;22.80;81.00;;;;;;6093270;23;20732;-92
2023/08/29 11:27:25;;;;;;;1.70;0.70;;;22.90;86.70;;;;;;6092710;23;20437;-91
2023/08/29 11:29:55;;;;;;;2.28;0.90;;;23.20;87.40;;;;;;6118601;23;20380;-92
2023/08/29 11:32:21;;;;;;;1.55;1.13;;;23.50;77.30;;;;;;6095027;23;20380;-93
2023/08/29 11:34:54;;;;;;;1.50;1.00;;;23.70;74.90;;;;;;6093422;23;20849;-93
2023/08/29 11:37:23;;;;;;;1.77;0.80;;;24.00;79.30;;;;;;6119679;23;20423;-92
2023/08/29 11:39:56;;;;;;;1.70;1.02;;;24.50;73.20;;;;;;6097638;23;20375;-92
2023/08/29 11:42:22;;;;;;;2.40;1.20;;;24.60;67.80;;;;;;6099599;23;20382;-91
2023/08/29 11:44:53;;;;;;;1.45;0.90;;;24.60;62.60;;;;;;6099048;23;20375;-91
2023/08/29 11:47:19;;;;;;;2.10;1.00;;;24.60;68.40;;;;;;6098698;23;20883;-91
2023/08/29 11:49:49;;;;;;;2.60;1.10;;;24.40;60.50;;;;;;6124491;23;20374;-92
2023/08/29 11:52:18;;;;;;;2.40;1.00;;;24.80;62.10;;;;;;6098038;23;20367;-93
2023/08/29 11:54:52;;;;;;;2.03;0.95;;;24.80;65.50;;;;;;6099972;23;20450;-91
2023/08/29 11:57:18;;;;;;;1.52;0.73;;;24.90;62.20;;;;;;6098021;23;20840;-91
2023/08/29 11:59:50;;;;;;;1.95;0.82;;;24.80;55.90;;;;;;6099835;23;20422;-91
2023/08/29 12:02:17;;;;;;;2.70;1.20;;;24.70;62.10;;;;;;6123174;23;20738;-91
2023/08/29 12:04:44;;;;;;;1.70;0.70;;;24.60;59.40;;;;;;6098301;23;20466;-91
2023/08/29 12:07:15;;;;;;;1.88;1.20;;;24.40;62.50;;;;;;6099665;23;20394;-93
2023/08/29 12:09:43;;;;;;;2.17;0.75;;;24.40;62.90;;;;;;6122514;23;20390;-93
2023/08/29 12:12:26;;;;;;;1.90;1.10;;;24.30;63.90;;;;;;6100587;23;20847;-93
2023/08/29 12:14:52;;;;;;;2.05;1.10;;;24.40;68.50;;;;;;6097999;23;20379;-92
2023/08/29 12:17:18;;;;;;;2.00;1.00;;;24.40;59.50;;;;;;6099184;23;20487;-94
2023/08/29 12:19:45;;;;;;;1.90;1.10;;;24.70;67.80;;;;;;6099881;23;20383;-93
2023/08/29 12:22:11;;;;;;;3.00;1.42;;;25.10;58.70;;;;;;6098563;23;20426;-92
2023/08/29 12:24:36;;;;;;;1.85;1.13;;;25.30;60.30;;;;;;6100259;23;20374;-95
2023/08/29 12:27:04;;;;;;;2.37;1.23;;;25.70;62.40;;;;;;6098015;23;20401;-94
2023/08/29 12:29:31;;;;;;;2.03;1.27;;;26.10;56.90;;;;;;6099925;23;20458;-93
2023/08/29 12:31:57;;;;;;;1.33;0.87;;;26.60;58.00;;;;;;6098137;23;20394;-93
2023/08/29 12:34:23;;;;;;;1.90;1.05;;;26.50;55.20;;;;;;6099783;23;20466;-91
2023/08/29 12:36:48;;;;;;;2.47;1.20;;;26.40;54.90;;;;;;6123885;23;20379;-95
2023/08/29 12:39:14;;;;;;;2.20;0.90;;;26.10;53.10;;;;;;6098855;23;20453;-93
2023/08/29 12:41:40;;;;;;;1.70;0.80;;;26.30;53.20;;;;;;6099775;23;20378;-94
2023/08/29 12:44:06;;;;;;;1.40;0.80;;;26.60;57.90;;;;;;6097610;23;20378;-95